Time;durP1;ratioP1;P1;durP2;ratioP2;P2;SDS_P1;SDS_P2;PMS_P1;PMS_P2;Temp;Humidity;BMP_temperature;BMP_pressure;BME280_temperature;BME280_humidity;BME280_pressure;Samples;Min_cycle;Max_cycle;Signal;HPM_P1;HPM_P2
2023/07/02 00:00:44;;;;;;;6.13;1.93;;;;;;;18.01;79.59;99850.50;5055948;28;20752;-74
2023/07/02 00:03:11;;;;;;;5.47;2.03;;;;;;;18.01;79.29;99847.84;5053598;28;20206;-75
2023/07/02 00:05:37;;;;;;;2.30;2.10;;;;;;;18.01;79.67;99852.44;5057871;28;20245;-74
2023/07/02 00:08:04;;;;;;;3.40;2.50;;;;;;;18.02;79.48;99848.63;5053507;28;20218;-75
2023/07/02 00:10:30;;;;;;;3.10;2.30;;;;;;;18.01;79.34;99852.44;5056090;28;20230;-75
2023/07/02 00:12:57;;;;;;;2.00;1.80;;;;;;;18.00;79.52;99843.66;5052913;28;20209;-74
2023/07/02 00:15:24;;;;;;;3.37;1.90;;;;;;;18.00;79.50;99842.91;5058868;28;20642;-74
2023/07/02 00:17:51;;;;;;;2.53;1.87;;;;;;;17.97;79.96;99835.66;5057071;28;20715;-75
2023/07/02 00:20:19;;;;;;;2.40;1.87;;;;;;;17.97;80.04;99835.66;5061403;28;20194;-76
2023/07/02 00:22:46;;;;;;;2.10;1.80;;;;;;;17.95;79.64;99844.06;5059179;28;20285;-76
2023/07/02 00:25:14;;;;;;;2.67;1.97;;;;;;;17.91;80.19;99854.00;5057037;28;20257;-76
2023/07/02 00:27:40;;;;;;;1.80;1.70;;;;;;;17.90;80.08;99849.81;5062952;28;20210;-76
2023/07/02 00:30:08;;;;;;;2.33;2.00;;;;;;;17.91;79.54;99848.66;5053532;28;20225;-76
2023/07/02 00:32:35;;;;;;;5.07;2.00;;;;;;;17.90;80.29;99846.41;5061725;28;21014;-76
2023/07/02 00:35:02;;;;;;;4.33;1.83;;;;;;;17.90;80.36;99854.44;5038303;28;20241;-76
2023/07/02 00:37:29;;;;;;;4.37;2.07;;;;;;;17.90;79.96;99838.41;5057924;28;20219;-76
2023/07/02 00:39:56;;;;;;;4.10;2.20;;;;;;;17.90;79.61;99843.75;5057325;28;20217;-76
2023/07/02 00:42:23;;;;;;;4.27;2.00;;;;;;;17.90;79.99;99846.41;5042916;28;20205;-76
2023/07/02 00:44:52;;;;;;;3.53;2.17;;;;;;;17.89;80.24;99842.97;5057042;28;20231;-75
2023/07/02 00:47:18;;;;;;;2.70;2.20;;;;;;;17.90;80.42;99844.47;5060795;28;20503;-74
2023/07/02 00:49:46;;;;;;;3.67;2.07;;;;;;;17.92;80.52;99841.44;5045437;28;20210;-75
2023/07/02 00:52:12;;;;;;;2.30;2.10;;;;;;;17.91;79.94;99834.56;5060178;28;22377;-75
2023/07/02 00:54:40;;;;;;;2.20;2.00;;;;;;;17.91;80.20;99840.66;5041438;28;20226;-74
2023/07/02 00:57:07;;;;;;;3.13;2.20;;;;;;;17.94;79.86;99849.78;5040427;28;20297;-74
2023/07/02 00:59:35;;;;;;;2.73;1.93;;;;;;;17.95;80.24;99846.00;5058780;28;20207;-74
2023/07/02 01:02:02;;;;;;;5.10;2.60;;;;;;;17.96;79.95;99840.25;5064079;28;20669;-75
2023/07/02 01:04:28;;;;;;;5.43;2.07;;;;;;;17.95;80.23;99841.41;5056362;28;20313;-74
2023/07/02 01:06:58;;;;;;;2.20;1.80;;;;;;;17.97;80.14;99852.47;5053165;28;20214;-74
2023/07/02 01:09:26;;;;;;;2.00;1.80;;;;;;;17.96;79.93;99845.59;5052120;28;20624;-74
2023/07/02 01:11:56;;;;;;;3.53;2.00;;;;;;;17.97;79.87;99844.47;5053135;28;20275;-74
2023/07/02 01:14:25;;;;;;;1.83;1.73;;;;;;;17.96;79.94;99834.91;5038732;28;20223;-74
2023/07/02 01:16:54;;;;;;;2.13;1.73;;;;;;;17.97;79.51;99838.34;5045684;28;20213;-74
2023/07/02 01:19:25;;;;;;;2.83;2.20;;;;;;;17.94;79.75;99836.44;5051302;28;20207;-74
2023/07/02 01:21:53;;;;;;;3.40;2.07;;;;;;;17.98;79.42;99837.19;5057601;28;20202;-74
2023/07/02 01:24:21;;;;;;;2.13;1.90;;;;;;;17.97;79.82;99844.47;5058432;28;20223;-74
2023/07/02 01:26:47;;;;;;;3.83;1.90;;;;;;;17.98;79.52;99839.84;5055839;28;20202;-74
2023/07/02 01:29:15;;;;;;;3.20;2.00;;;;;;;17.96;79.63;99840.25;5044544;28;20215;-74
2023/07/02 01:31:41;;;;;;;9.30;2.67;;;;;;;17.96;79.58;99845.59;5062501;28;20222;-74
2023/07/02 01:34:09;;;;;;;2.50;1.80;;;;;;;17.95;79.66;99846.00;5052190;28;20595;-74
2023/07/02 01:36:36;;;;;;;3.37;2.13;;;;;;;17.93;79.64;99853.63;5057075;28;20208;-74
2023/07/02 01:39:04;;;;;;;3.67;2.40;;;;;;;17.91;79.61;99843.31;5039645;28;20381;-74
2023/07/02 01:41:34;;;;;;;3.10;2.10;;;;;;;17.92;79.28;99839.53;5060878;28;20214;-74
2023/07/02 01:44:00;;;;;;;4.23;1.90;;;;;;;17.94;79.59;99855.91;5056084;28;20222;-74
2023/07/02 01:46:27;;;;;;;2.10;1.93;;;;;;;17.94;79.80;99844.44;5059109;28;20202;-74
2023/07/02 01:48:53;;;;;;;2.10;1.93;;;;;;;17.91;79.65;99846.00;5054067;28;20209;-74
2023/07/02 01:51:20;;;;;;;2.23;1.97;;;;;;;17.93;79.38;99849.06;5043963;28;20226;-74
2023/07/02 01:53:46;;;;;;;2.60;1.90;;;;;;;17.91;79.48;99846.00;5046365;28;20209;-74
2023/07/02 01:56:14;;;;;;;2.90;2.27;;;;;;;17.90;79.55;99847.16;5060008;28;20231;-74
2023/07/02 01:58:40;;;;;;;4.20;2.07;;;;;;;17.91;79.39;99850.59;5041504;28;20210;-74
2023/07/02 02:01:06;;;;;;;2.40;2.20;;;;;;;17.92;79.42;99849.44;5044288;28;20198;-74
2023/07/02 02:03:33;;;;;;;2.00;1.80;;;;;;;17.90;79.48;99857.84;5062974;28;20691;-74
2023/07/02 02:05:59;;;;;;;2.13;1.93;;;;;;;17.88;79.44;99857.47;5043089;28;20223;-74
2023/07/02 02:08:26;;;;;;;3.37;2.27;;;;;;;17.89;79.47;99855.56;5060068;28;20198;-74
2023/07/02 02:10:52;;;;;;;1.93;1.83;;;;;;;17.88;79.44;99854.03;5060486;28;20211;-74
2023/07/02 02:13:19;;;;;;;2.30;2.10;;;;;;;17.85;79.43;99852.16;5057968;28;21631;-74
2023/07/02 02:15:46;;;;;;;3.53;2.20;;;;;;;17.85;79.92;99858.25;5037001;28;20226;-74
2023/07/02 02:18:12;;;;;;;2.40;2.03;;;;;;;17.86;79.69;99859.03;5040797;28;20452;-74
2023/07/02 02:20:39;;;;;;;4.63;2.17;;;;;;;17.84;79.52;99864.75;5055452;28;20210;-74
2023/07/02 02:23:05;;;;;;;4.20;2.00;;;;;;;17.86;79.55;99881.13;5054294;28;20198;-74
2023/07/02 02:25:31;;;;;;;2.57;2.07;;;;;;;17.87;79.57;99874.66;5061244;28;20650;-74
2023/07/02 02:27:58;;;;;;;3.10;2.43;;;;;;;17.87;79.84;99874.66;5060001;28;20199;-74
2023/07/02 02:30:27;;;;;;;2.90;2.10;;;;;;;17.85;79.57;99876.19;5040533;28;20203;-74
2023/07/02 02:32:54;;;;;;;3.43;2.23;;;;;;;17.88;79.31;99876.19;5043177;28;20489;-74
2023/07/02 02:35:20;;;;;;;3.17;2.40;;;;;;;17.90;79.37;99878.47;5036538;28;20238;-74
2023/07/02 02:37:47;;;;;;;2.83;2.23;;;;;;;17.90;79.35;99871.19;5040088;28;20215;-74
2023/07/02 02:40:14;;;;;;;3.97;2.70;;;;;;;17.89;79.28;99879.59;5052980;28;20286;-76
2023/07/02 02:42:41;;;;;;;2.67;2.17;;;;;;;17.90;79.22;99878.47;5041537;28;20229;-74
2023/07/02 02:45:08;;;;;;;4.67;2.20;;;;;;;17.91;79.15;99872.72;5040040;28;20247;-74
2023/07/02 02:47:36;;;;;;;4.00;2.40;;;;;;;17.89;78.99;99867.00;5060502;28;20751;-74
2023/07/02 02:50:03;;;;;;;3.27;2.50;;;;;;;17.90;79.11;99875.78;5042235;28;20252;-74
2023/07/02 02:52:31;;;;;;;5.63;2.80;;;;;;;17.92;78.87;99882.25;5044532;28;20250;-74
2023/07/02 02:54:58;;;;;;;3.33;2.73;;;;;;;17.92;79.00;99876.94;5044069;28;20241;-74
2023/07/02 02:57:24;;;;;;;3.77;2.67;;;;;;;17.91;78.94;99879.97;5044844;28;20217;-74
2023/07/02 02:59:50;;;;;;;2.53;2.33;;;;;;;17.90;78.73;99881.88;5044484;28;20211;-74
2023/07/02 03:02:17;;;;;;;3.33;2.83;;;;;;;17.90;78.83;99884.56;5046738;28;20195;-74
2023/07/02 03:04:45;;;;;;;4.13;2.73;;;;;;;17.91;78.76;99882.66;5059690;28;20309;-74
2023/07/02 03:07:11;;;;;;;4.40;3.03;;;;;;;17.92;78.59;99884.16;5056656;28;20214;-74
2023/07/02 03:09:37;;;;;;;2.93;2.67;;;;;;;17.91;78.78;99886.06;5060418;28;20214;-74
2023/07/02 03:12:05;;;;;;;3.63;2.80;;;;;;;17.92;78.50;99886.84;5039980;28;20712;-73
2023/07/02 03:14:31;;;;;;;3.47;2.60;;;;;;;17.91;78.21;99872.72;5038698;28;20252;-73
2023/07/02 03:16:58;;;;;;;3.30;2.77;;;;;;;17.92;78.31;99882.25;5054634;28;20285;-74
2023/07/02 03:19:25;;;;;;;8.17;2.70;;;;;;;17.92;78.21;99889.50;5041363;28;20211;-74
2023/07/02 03:21:52;;;;;;;3.33;3.03;;;;;;;17.92;78.13;99894.84;5060004;28;20211;-74
2023/07/02 03:24:19;;;;;;;4.03;2.57;;;;;;;17.92;78.38;99894.84;5060062;28;20642;-74
2023/07/02 03:26:45;;;;;;;4.17;2.70;;;;;;;17.92;77.87;99898.28;5061224;28;20405;-74
2023/07/02 03:29:12;;;;;;;5.67;2.43;;;;;;;17.92;78.09;99892.19;5052410;28;20199;-74
2023/07/02 03:31:39;;;;;;;3.87;2.70;;;;;;;17.92;78.28;99892.94;5062088;28;20226;-74
2023/07/02 03:34:08;;;;;;;4.30;3.00;;;;;;;17.92;78.37;99898.28;5059327;28;20217;-74
2023/07/02 03:36:34;;;;;;;2.90;2.67;;;;;;;17.92;78.04;99906.31;5038642;28;20228;-74
2023/07/02 03:39:02;;;;;;;3.13;2.80;;;;;;;17.91;78.30;99907.44;5057146;28;20211;-74
2023/07/02 03:41:29;;;;;;;3.53;2.93;;;;;;;17.91;78.04;99910.09;5066471;28;20286;-74
2023/07/02 03:43:55;;;;;;;3.17;2.90;;;;;;;17.93;77.86;99921.19;5059570;28;20329;-74
2023/07/02 03:46:21;;;;;;;3.33;2.93;;;;;;;17.92;78.12;99913.56;5058593;28;20290;-74
2023/07/02 03:48:48;;;;;;;3.37;2.80;;;;;;;17.93;77.80;99907.81;5064303;28;20291;-74
2023/07/02 03:51:15;;;;;;;4.97;2.93;;;;;;;17.94;77.69;99920.03;5057123;28;20237;-74
2023/07/02 03:53:41;;;;;;;5.37;3.13;;;;;;;17.93;77.70;99929.19;5061983;28;20230;-74
2023/07/02 03:56:09;;;;;;;4.33;3.13;;;;;;;17.95;77.71;99931.47;5062756;28;20202;-74
2023/07/02 03:58:35;;;;;;;4.20;2.83;;;;;;;17.96;77.58;99935.66;5061404;28;20292;-74
2023/07/02 04:01:02;;;;;;;3.13;2.87;;;;;;;17.98;77.55;99938.69;5063597;28;20201;-74
2023/07/02 04:03:28;;;;;;;5.77;2.90;;;;;;;17.99;77.69;99945.56;5043217;28;20217;-75
2023/07/02 04:05:55;;;;;;;4.17;2.80;;;;;;;17.98;77.57;99944.03;5066130;28;20297;-74
2023/07/02 04:08:22;;;;;;;3.00;2.70;;;;;;;17.98;77.55;99941.38;5047193;28;20217;-74
2023/07/02 04:10:48;;;;;;;3.00;2.70;;;;;;;18.00;77.67;99941.75;5060266;28;20227;-74
2023/07/02 04:13:16;;;;;;;2.77;2.57;;;;;;;18.01;77.67;99946.69;5042233;28;20208;-74
2023/07/02 04:15:42;;;;;;;3.27;2.80;;;;;;;17.99;77.48;99942.88;5064443;28;20230;-74
2023/07/02 04:18:09;;;;;;;3.47;2.80;;;;;;;18.00;77.63;99953.19;5066120;28;20202;-73
2023/07/02 04:20:38;;;;;;;6.10;2.87;;;;;;;17.99;77.51;99951.66;5068118;28;20237;-74
2023/07/02 04:23:04;;;;;;;3.33;2.50;;;;;;;17.99;77.31;99957.03;5064228;28;20218;-74
2023/07/02 04:25:31;;;;;;;3.50;2.70;;;;;;;17.96;77.40;99960.44;5062595;28;20235;-74
2023/07/02 04:27:58;;;;;;;2.90;2.60;;;;;;;17.97;77.29;99961.22;5065941;28;20589;-74
2023/07/02 04:30:26;;;;;;;3.00;2.70;;;;;;;17.98;77.32;99960.06;5066803;28;20221;-74
2023/07/02 04:32:53;;;;;;;3.47;2.57;;;;;;;17.98;77.60;99958.16;5049459;28;20223;-74
2023/07/02 04:35:19;;;;;;;4.20;2.47;;;;;;;17.96;77.53;99960.44;5064695;28;20211;-74
2023/07/02 04:37:46;;;;;;;4.67;2.73;;;;;;;17.97;77.33;99970.00;5062071;28;20218;-74
2023/07/02 04:40:13;;;;;;;3.20;2.90;;;;;;;17.94;77.34;99978.78;5056587;28;20194;-74
2023/07/02 04:42:46;;;;;;;4.40;2.80;;;;;;;17.96;77.55;99978.41;5058713;28;20199;-74
2023/07/02 04:45:15;;;;;;;3.07;2.70;;;;;;;17.98;77.33;99978.78;5062029;28;20226;-74
2023/07/02 04:47:43;;;;;;;3.40;3.10;;;;;;;17.97;77.50;99980.69;5061375;28;20728;-74
2023/07/02 04:50:10;;;;;;;3.30;3.00;;;;;;;17.95;77.26;99980.31;5045170;28;20272;-74
2023/07/02 04:52:36;;;;;;;5.63;2.90;;;;;;;18.00;77.14;99984.50;5063886;28;20218;-74
2023/07/02 04:55:03;;;;;;;3.00;2.80;;;;;;;18.00;77.16;99995.94;5059965;28;20227;-74
2023/07/02 04:57:29;;;;;;;2.97;2.70;;;;;;;18.02;76.94;99996.31;5070290;28;20297;-74
2023/07/02 04:59:56;;;;;;;5.07;3.20;;;;;;;18.07;76.95;99997.81;5068146;28;20209;-74
2023/07/02 05:02:22;;;;;;;3.63;3.13;;;;;;;18.07;76.77;99995.16;5061955;28;20202;-74
2023/07/02 05:04:50;;;;;;;4.47;3.07;;;;;;;18.09;76.38;99979.47;5050788;28;20221;-74
2023/07/02 05:07:16;;;;;;;4.10;2.97;;;;;;;18.14;76.56;99982.53;5064672;28;20211;-74
2023/07/02 05:09:43;;;;;;;3.00;2.70;;;;;;;18.19;76.77;99990.13;5065772;28;20325;-74
2023/07/02 05:12:10;;;;;;;4.50;2.90;;;;;;;18.21;76.40;99987.81;5066587;28;20234;-74
2023/07/02 05:14:36;;;;;;;4.30;2.93;;;;;;;18.28;76.98;99989.69;5066521;28;20230;-74
2023/07/02 05:17:04;;;;;;;4.57;3.00;;;;;;;18.31;76.28;99992.34;5050999;28;20206;-74
2023/07/02 05:19:33;;;;;;;2.90;2.67;;;;;;;18.37;76.30;99988.13;5065637;28;20212;-74
2023/07/02 05:22:00;;;;;;;2.80;2.60;;;;;;;18.43;76.60;99986.56;5061289;28;20199;-74
2023/07/02 05:24:27;;;;;;;2.80;2.50;;;;;;;18.50;76.32;99993.78;5049503;28;20638;-74
2023/07/02 05:26:53;;;;;;;3.00;2.70;;;;;;;18.56;76.19;100001.00;5064892;28;20210;-74
2023/07/02 05:29:19;;;;;;;2.97;2.57;;;;;;;18.61;75.55;99994.47;5043518;28;20756;-74
2023/07/02 05:31:46;;;;;;;3.37;2.70;;;;;;;18.68;75.50;99997.84;5044700;28;20227;-74
2023/07/02 05:34:12;;;;;;;2.27;2.10;;;;;;;18.73;74.70;100002.03;5065513;28;20229;-74
2023/07/02 05:36:39;;;;;;;5.30;2.57;;;;;;;18.81;74.69;100009.63;5060402;28;20233;-74
2023/07/02 05:39:06;;;;;;;2.57;2.03;;;;;;;18.88;74.70;100009.56;5057712;28;20214;-74
2023/07/02 05:41:33;;;;;;;2.73;2.20;;;;;;;18.94;74.48;100005.31;5061652;28;20203;-74
2023/07/02 05:43:59;;;;;;;3.33;2.60;;;;;;;19.00;75.31;100013.69;5057258;28;20264;-74
2023/07/02 05:46:26;;;;;;;3.13;2.27;;;;;;;19.04;73.69;100007.13;5055772;28;20272;-74
2023/07/02 05:48:54;;;;;;;2.77;2.57;;;;;;;19.08;73.27;100012.44;5060146;28;20202;-74
2023/07/02 05:51:21;;;;;;;2.30;2.10;;;;;;;19.11;72.62;100011.66;5052458;28;20596;-74
2023/07/02 05:53:48;;;;;;;2.30;2.10;;;;;;;19.11;71.82;100006.31;5054582;28;20194;-74
2023/07/02 05:56:16;;;;;;;3.03;1.90;;;;;;;19.15;72.17;100012.41;5064450;28;20211;-73
2023/07/02 05:58:42;;;;;;;2.60;2.33;;;;;;;19.20;72.26;100007.38;5062429;28;20210;-74
2023/07/02 06:01:08;;;;;;;2.23;2.03;;;;;;;19.25;73.78;100006.22;5046513;28;20199;-74
2023/07/02 06:03:35;;;;;;;2.37;1.90;;;;;;;19.30;71.46;100008.47;5065574;28;20682;-73
2023/07/02 06:06:01;;;;;;;2.47;2.20;;;;;;;19.37;71.76;100013.75;5064923;28;20647;-74
2023/07/02 06:08:28;;;;;;;2.57;2.37;;;;;;;19.42;70.60;100013.31;5061636;28;20187;-74
2023/07/02 06:10:54;;;;;;;2.73;2.40;;;;;;;19.48;70.14;100017.09;5041074;28;20208;-74
2023/07/02 06:13:22;;;;;;;5.17;1.90;;;;;;;19.57;70.49;100022.75;5056328;28;20218;-74
2023/07/02 06:15:48;;;;;;;3.47;2.20;;;;;;;19.68;70.76;100026.06;5059202;28;20218;-74
2023/07/02 06:18:14;;;;;;;2.13;2.00;;;;;;;19.73;69.28;100015.69;5055139;28;20404;-74
2023/07/02 06:20:41;;;;;;;3.23;2.10;;;;;;;19.81;68.88;100030.50;5059044;28;20203;-74
2023/07/02 06:23:07;;;;;;;2.10;1.90;;;;;;;19.89;67.94;100020.47;5059250;28;20195;-74
2023/07/02 06:25:34;;;;;;;1.90;1.80;;;;;;;19.97;67.88;100029.94;5054968;28;20290;-74
2023/07/02 06:28:00;;;;;;;2.40;2.20;;;;;;;20.01;66.66;100023.38;5060238;28;20198;-74
2023/07/02 06:30:28;;;;;;;2.30;2.10;;;;;;;20.03;68.03;100015.69;5058053;28;20203;-74
2023/07/02 06:32:54;;;;;;;2.20;2.00;;;;;;;20.13;68.50;100019.44;5068945;28;20229;-74
2023/07/02 06:35:21;;;;;;;2.27;2.07;;;;;;;20.25;68.53;100014.31;5048165;28;20232;-74
2023/07/02 06:37:47;;;;;;;1.80;1.70;;;;;;;20.31;65.89;100023.41;5067596;28;20275;-74
2023/07/02 06:40:14;;;;;;;1.87;1.70;;;;;;;20.34;64.25;100016.47;5058152;28;20293;-74
2023/07/02 06:42:41;;;;;;;4.00;2.00;;;;;;;20.35;65.52;100024.13;5064745;28;20197;-74
2023/07/02 06:45:08;;;;;;;3.40;2.00;;;;;;;20.32;63.81;100026.84;5068302;28;20222;-74
2023/07/02 06:47:36;;;;;;;3.53;2.10;;;;;;;20.29;63.66;100031.09;5058356;28;20324;-73
2023/07/02 06:50:02;;;;;;;2.30;2.10;;;;;;;20.32;64.18;100032.19;5057403;28;20194;-74
2023/07/02 06:52:29;;;;;;;1.67;1.57;;;;;;;20.28;63.99;100045.66;5034595;28;20237;-74
2023/07/02 06:54:55;;;;;;;2.00;1.60;;;;;;;20.30;64.09;100040.66;5057239;28;20243;-74
2023/07/02 06:57:23;;;;;;;3.10;1.80;;;;;;;20.34;64.29;100043.28;5065760;28;20656;-74
2023/07/02 06:59:50;;;;;;;2.33;1.93;;;;;;;20.42;63.79;100045.47;5061918;28;20236;-74
2023/07/02 07:02:16;;;;;;;5.27;1.80;;;;;;;20.53;64.48;100037.28;5041951;28;20202;-74
2023/07/02 07:04:44;;;;;;;2.43;1.93;;;;;;;20.62;61.74;100038.31;5059481;28;20226;-74
2023/07/02 07:07:10;;;;;;;2.20;2.00;;;;;;;20.65;64.27;100042.84;5023330;28;20232;-74
2023/07/02 07:09:36;;;;;;;1.97;1.73;;;;;;;20.69;61.79;100054.28;5010434;28;20200;-74
2023/07/02 07:12:04;;;;;;;2.37;2.10;;;;;;;20.66;61.04;100046.28;5017723;28;20698;-74
2023/07/02 07:14:30;;;;;;;2.27;1.57;;;;;;;20.66;59.48;100051.66;5016632;28;20224;-74
2023/07/02 07:16:56;;;;;;;2.30;1.87;;;;;;;20.71;58.37;100054.66;5017036;28;20813;-74
2023/07/02 07:19:23;;;;;;;2.50;1.93;;;;;;;20.77;60.71;100054.94;5008032;28;20218;-73
2023/07/02 07:21:50;;;;;;;3.17;1.80;;;;;;;20.79;57.70;100052.59;5022832;28;20209;-74
2023/07/02 07:24:17;;;;;;;3.87;2.10;;;;;;;20.86;57.24;100044.47;5020306;28;20571;-74
2023/07/02 07:26:44;;;;;;;2.93;2.20;;;;;;;20.94;58.12;100043.22;5016508;28;20229;-74
2023/07/02 07:29:11;;;;;;;2.00;1.80;;;;;;;21.02;58.51;100050.00;5015785;28;20215;-75
2023/07/02 07:31:37;;;;;;;2.27;1.90;;;;;;;21.12;61.26;100057.13;5023493;28;20769;-74
2023/07/02 07:34:04;;;;;;;1.87;1.77;;;;;;;21.16;54.90;100052.47;4999459;28;20231;-74
2023/07/02 07:36:30;;;;;;;2.93;1.87;;;;;;;21.21;55.88;100049.31;5028024;28;20220;-74
2023/07/02 07:38:58;;;;;;;1.60;1.50;;;;;;;21.23;52.96;100046.97;5017592;28;20553;-73
2023/07/02 07:41:24;;;;;;;1.90;1.73;;;;;;;21.24;53.95;100041.19;5017808;28;20208;-74
2023/07/02 07:43:50;;;;;;;2.23;1.60;;;;;;;21.24;50.84;100043.09;5021421;28;20298;-74
2023/07/02 07:46:17;;;;;;;4.30;1.73;;;;;;;21.29;53.42;100039.94;5015407;28;20211;-74
2023/07/02 07:48:43;;;;;;;4.47;1.70;;;;;;;21.34;53.57;100052.91;5016368;28;20218;-74
2023/07/02 07:51:09;;;;;;;2.80;1.77;;;;;;;21.42;55.23;100049.69;4998202;28;20223;-74
2023/07/02 07:53:38;;;;;;;2.20;1.50;;;;;;;21.45;51.27;100056.94;5020926;28;20223;-74
2023/07/02 07:56:06;;;;;;;1.80;1.63;;;;;;;21.46;50.51;100045.03;5024682;28;20207;-73
2023/07/02 07:58:32;;;;;;;2.00;1.50;;;;;;;21.51;52.24;100052.59;5021867;28;20207;-74
2023/07/02 08:00:59;;;;;;;2.20;1.70;;;;;;;21.57;52.12;100056.31;5026345;28;20204;-74
2023/07/02 08:03:25;;;;;;;1.80;1.70;;;;;;;21.59;48.09;100039.81;5024438;28;20219;-74
2023/07/02 08:05:51;;;;;;;2.40;1.80;;;;;;;21.70;52.48;100051.91;5012642;28;20242;-74
2023/07/02 08:08:18;;;;;;;2.13;1.70;;;;;;;21.78;52.99;100047.91;5022017;28;20211;-74
2023/07/02 08:10:45;;;;;;;2.17;1.90;;;;;;;21.87;48.69;100042.75;5011412;28;20211;-74
2023/07/02 08:13:13;;;;;;;2.20;1.67;;;;;;;21.97;46.65;100044.47;5020343;28;20573;-74
2023/07/02 08:15:39;;;;;;;2.33;1.50;;;;;;;22.01;46.41;100049.78;5015874;28;20232;-73
2023/07/02 08:18:07;;;;;;;1.70;1.43;;;;;;;22.01;42.43;100039.78;4997203;28;20246;-74
2023/07/02 08:20:33;;;;;;;1.70;1.60;;;;;;;22.06;44.32;100036.59;5019397;28;20786;-74
2023/07/02 08:22:59;;;;;;;2.33;1.90;;;;;;;22.10;49.36;100045.34;5020836;28;20207;-74
2023/07/02 08:25:27;;;;;;;2.60;1.87;;;;;;;22.14;45.83;100037.22;5009741;28;20259;-74
2023/07/02 08:27:53;;;;;;;1.70;1.60;;;;;;;22.16;48.08;100040.25;5022491;28;20200;-74
2023/07/02 08:30:21;;;;;;;2.73;1.70;;;;;;;22.21;48.51;100037.84;5019311;28;20200;-74
2023/07/02 08:32:47;;;;;;;2.67;1.80;;;;;;;22.28;48.79;100048.44;5015207;28;20587;-73
2023/07/02 08:35:13;;;;;;;4.17;1.70;;;;;;;22.31;44.06;100028.03;5015756;28;20223;-74
2023/07/02 08:37:40;;;;;;;1.70;1.60;;;;;;;22.29;42.19;100035.72;5014612;28;20207;-74
2023/07/02 08:40:15;;;;;;;2.13;1.80;;;;;;;22.37;46.28;100035.19;5012653;28;20732;-75
2023/07/02 08:42:42;;;;;;;2.50;1.50;;;;;;;22.42;46.38;100042.00;5018827;28;20205;-75
2023/07/02 08:45:11;;;;;;;2.27;1.67;;;;;;;22.48;46.48;100048.41;5011461;28;20215;-75
2023/07/02 08:47:38;;;;;;;3.37;1.80;;;;;;;22.53;45.24;100051.38;5016354;28;20219;-74
2023/07/02 08:50:06;;;;;;;1.80;1.60;;;;;;;22.61;43.01;100058.13;5009650;28;20204;-75
2023/07/02 08:52:32;;;;;;;3.17;1.70;;;;;;;22.69;47.01;100064.88;5014931;28;20222;-74
2023/07/02 08:54:59;;;;;;;3.42;1.85;;;;;;;22.76;45.16;100062.00;5013854;28;20263;-74
2023/07/02 08:57:25;;;;;;;4.45;1.80;;;;;;;22.83;45.00;100069.94;4993549;28;20678;-74
2023/07/02 08:59:52;;;;;;;3.97;1.70;;;;;;;22.92;45.38;100083.56;5011280;28;20731;-75
2023/07/02 09:02:18;;;;;;;2.47;1.58;;;;;;;23.01;43.77;100080.28;5002388;28;20197;-75
2023/07/02 09:04:46;;;;;;;3.88;2.00;;;;;;;23.08;43.86;100088.94;5013487;28;20294;-75
2023/07/02 09:07:12;;;;;;;3.65;1.65;;;;;;;23.11;41.97;100087.34;5015508;28;20220;-75
2023/07/02 09:09:47;;;;;;;2.13;1.65;;;;;;;23.10;41.66;100083.13;5015697;28;20261;-75
2023/07/02 09:12:23;;;;;;;2.08;1.48;;;;;;;23.18;46.39;100089.91;5014829;28;20201;-75
2023/07/02 09:14:55;;;;;;;2.92;1.63;;;;;;;23.30;46.01;100083.84;5015992;28;20223;-75
2023/07/02 09:17:21;;;;;;;3.05;1.70;;;;;;;23.37;44.38;100091.00;4998515;28;20215;-75
2023/07/02 09:19:52;;;;;;;1.65;1.55;;;;;;;23.31;45.29;100098.09;5015752;28;20251;-75
2023/07/02 09:22:19;;;;;;;1.92;1.73;;;;;;;23.31;45.94;100079.97;5017752;28;20577;-75
2023/07/02 09:24:52;;;;;;;3.10;1.67;;;;;;;23.27;44.90;100092.75;5010231;28;20223;-76
2023/07/02 09:27:19;;;;;;;3.25;1.70;;;;;;;23.31;46.37;100088.03;5016467;28;20208;-75
2023/07/02 09:29:51;;;;;;;3.13;1.65;;;;;;;23.24;42.40;100090.91;5016986;28;20207;-76
2023/07/02 09:32:25;;;;;;;1.70;1.60;;;;;;;23.26;43.64;100080.47;5014637;28;20201;-76
2023/07/02 09:34:55;;;;;;;2.42;1.63;;;;;;;23.26;41.75;100083.16;5018910;28;20235;-75
2023/07/02 09:37:21;;;;;;;4.30;2.55;;;;;;;23.32;43.80;100086.84;5017731;28;20212;-76
2023/07/02 09:39:51;;;;;;;2.13;1.75;;;;;;;23.37;44.04;100080.22;5014891;28;20205;-75
2023/07/02 09:42:19;;;;;;;2.33;1.77;;;;;;;23.44;46.28;100086.19;5021226;28;20226;-75
2023/07/02 09:44:46;;;;;;;2.25;1.80;;;;;;;23.43;42.20;100090.81;5018147;28;20315;-76
2023/07/02 09:47:14;;;;;;;1.75;1.40;;;;;;;23.53;46.02;100087.09;5015403;28;20244;-75
2023/07/02 09:49:43;;;;;;;2.42;1.70;;;;;;;23.67;45.76;100089.44;5015386;28;20226;-76
2023/07/02 09:52:12;;;;;;;2.70;2.10;;;;;;;23.69;42.81;100097.84;5007027;28;20208;-76
2023/07/02 09:54:39;;;;;;;1.95;1.75;;;;;;;23.69;43.69;100092.44;5011271;28;20635;-76
2023/07/02 09:57:07;;;;;;;1.90;1.70;;;;;;;23.68;45.97;100099.03;5014100;28;20220;-76
2023/07/02 09:59:33;;;;;;;1.80;1.70;;;;;;;23.64;42.86;100095.66;5007693;28;20231;-75
2023/07/02 10:02:00;;;;;;;1.90;1.73;;;;;;;23.73;45.20;100088.91;5019709;28;20284;-75
2023/07/02 10:04:26;;;;;;;3.60;1.90;;;;;;;23.80;45.38;100089.47;5012405;28;20255;-76
2023/07/02 10:06:54;;;;;;;2.78;1.77;;;;;;;23.80;45.55;100092.91;5013455;28;21084;-76
2023/07/02 10:09:35;;;;;;;2.55;1.90;;;;;;;23.82;44.84;100087.09;5006217;28;20259;-75
2023/07/02 10:12:02;;;;;;;5.00;2.13;;;;;;;23.84;43.37;100093.59;5004215;28;21460;-75
2023/07/02 10:14:41;;;;;;;5.72;2.10;;;;;;;23.70;44.61;100098.59;5012733;28;20415;-75
2023/07/02 10:17:07;;;;;;;3.85;1.77;;;;;;;23.57;43.94;100097.03;4997879;28;20810;-75
2023/07/02 10:19:34;;;;;;;1.98;1.88;;;;;;;23.49;44.12;100102.59;5013872;28;20208;-74
2023/07/02 10:22:07;;;;;;;3.15;1.83;;;;;;;23.37;43.53;100105.22;5016856;28;20204;-74
2023/07/02 10:24:36;;;;;;;3.97;2.42;;;;;;;23.14;45.37;100113.44;5013745;28;20246;-74
2023/07/02 10:27:03;;;;;;;5.13;2.08;;;;;;;22.97;43.86;100109.25;5013732;28;20208;-73
2023/07/02 10:29:30;;;;;;;2.20;2.00;;;;;;;22.78;47.27;100116.19;5014805;28;20216;-73
2023/07/02 10:31:58;;;;;;;4.18;2.40;;;;;;;22.66;46.13;100132.97;5011728;28;20208;-74
2023/07/02 10:34:31;;;;;;;2.33;2.13;;;;;;;22.46;48.58;100140.31;4996285;28;20274;-73
2023/07/02 10:36:59;;;;;;;2.10;1.90;;;;;;;22.20;46.83;100140.44;5012356;28;20204;-73
2023/07/02 10:39:26;;;;;;;2.60;1.95;;;;;;;21.98;48.70;100150.84;5012751;28;20214;-73
2023/07/02 10:41:53;;;;;;;5.05;2.13;;;;;;;21.68;48.70;100161.72;5010487;28;20970;-74
2023/07/02 10:44:20;;;;;;;3.03;1.80;;;;;;;21.58;49.80;100194.13;5014450;28;20677;-73
2023/07/02 10:46:47;;;;;;;3.58;1.90;;;;;;;21.26;53.02;100210.72;5004645;28;20208;-73
2023/07/02 10:49:14;;;;;;;3.45;2.40;;;;;;;20.94;55.48;100207.72;5004287;28;20236;-73
2023/07/02 10:51:41;;;;;;;4.53;2.13;;;;;;;20.47;56.83;100203.28;5007327;28;20207;-73
2023/07/02 10:54:07;;;;;;;5.77;2.60;;;;;;;19.94;55.79;100199.59;5011284;28;20792;-74
2023/07/02 10:56:33;;;;;;;7.90;2.97;;;;;;;19.68;56.21;100202.88;5007837;28;20208;-72
2023/07/02 10:59:01;;;;;;;4.40;3.03;;;;;;;19.45;57.33;100210.72;5000578;28;20213;-72
2023/07/02 11:01:30;;;;;;;4.63;3.00;;;;;;;19.19;59.34;100203.94;5003708;28;20320;-74
2023/07/02 11:03:59;;;;;;;4.67;3.17;;;;;;;19.00;58.68;100196.38;5002598;28;20240;-74
2023/07/02 11:06:25;;;;;;;5.20;3.60;;;;;;;18.79;59.24;100193.06;5008285;28;20841;-74
2023/07/02 11:08:54;;;;;;;6.20;3.60;;;;;;;18.64;59.87;100184.34;5009303;28;20224;-76
2023/07/02 11:11:21;;;;;;;5.73;3.50;;;;;;;18.47;60.42;100190.50;5010494;28;20209;-76
2023/07/02 11:13:49;;;;;;;5.20;3.17;;;;;;;18.42;60.47;100195.50;5006022;28;20220;-75
2023/07/02 11:16:25;;;;;;;5.37;3.33;;;;;;;18.40;61.13;100193.22;5006823;28;21344;-74
2023/07/02 11:19:07;;;;;;;7.20;3.73;;;;;;;18.37;60.67;100190.56;5005016;28;20223;-75
2023/07/02 11:21:33;;;;;;;6.70;3.90;;;;;;;18.32;59.65;100180.25;5025044;22;20720;-71
2023/07/02 11:24:03;;;;;;;7.87;3.70;;;;;;;18.29;60.10;100179.09;5004049;28;20750;-71
2023/07/02 11:26:35;;;;;;;5.23;3.63;;;;;;;18.33;60.26;100179.88;5002240;28;20215;-71
2023/07/02 11:29:02;;;;;;;7.23;3.73;;;;;;;18.38;61.07;100184.81;5004578;28;20221;-71